Time;durP1;ratioP1;P1;durP2;ratioP2;P2;SDS_P1;SDS_P2;PMS_P1;PMS_P2;Temp;Humidity;BMP_temperature;BMP_pressure;BME280_temperature;BME280_humidity;BME280_pressure;Samples;Min_cycle;Max_cycle;Signal;HPM_P1;HPM_P2
2024/01/05 00:00:53;;;;;;;6.00;3.80;;;;;;;2.05;100.00;98051.48;270663;1276;22556;-91
2024/01/05 00:07:18;;;;;;;14.50;7.20;;;;;;;2.06;100.00;98070.46;270691;1273;23189;-89
2024/01/05 00:13:22;;;;;;;15.10;9.60;;;;;;;2.08;100.00;98078.70;271836;1276;22224;-88
2024/01/05 00:19:25;;;;;;;10.20;6.30;;;;;;;2.10;100.00;98083.63;273370;1275;22183;-91
2024/01/05 00:25:27;;;;;;;10.90;6.90;;;;;;;2.12;100.00;98089.17;273285;1276;22200;-90
2024/01/05 00:39:31;;;;;;;7.80;2.90;;;;;;;2.13;100.00;98103.16;271512;1270;22558;-93
2024/01/05 00:45:37;;;;;;;9.60;2.50;;;;;;;2.13;100.00;98118.98;272991;1271;22317;-90
2024/01/05 00:51:41;;;;;;;15.60;7.30;;;;;;;2.13;100.00;98125.44;272656;1274;22609;-90
2024/01/05 00:58:57;;;;;;;;;;;;;;;;;;;;;
2024/01/05 01:05:27;;;;;;;5.00;2.50;;;;;;;2.10;100.00;98114.80;273108;1270;22520;-92
2024/01/05 01:11:32;;;;;;;5.20;2.90;;;;;;;2.08;100.00;98113.73;273044;1271;22377;-90
2024/01/05 01:17:39;;;;;;;6.50;2.80;;;;;;;2.06;100.00;98128.09;270579;1269;23706;-89
2024/01/05 01:23:45;;;;;;;5.60;2.70;;;;;;;2.05;100.00;98131.69;272708;1273;22283;-90
2024/01/05 01:29:51;;;;;;;8.00;3.30;;;;;;;2.02;100.00;98129.22;273402;1273;22449;-90
2024/01/05 01:35:57;;;;;;;12.00;3.50;;;;;;;2.01;100.00;98135.96;273326;1276;22397;-93
2024/01/05 01:42:03;;;;;;;6.90;3.70;;;;;;;1.99;100.00;98148.70;273319;1274;22207;-89
2024/01/05 01:48:09;;;;;;;9.20;4.00;;;;;;;1.97;100.00;98153.40;273365;1257;22347;-90
2024/01/05 01:54:13;;;;;;;14.80;3.40;;;;;;;1.95;100.00;98164.54;273400;1273;22241;-90
2024/01/05 02:00:16;;;;;;;4.40;3.00;;;;;;;1.92;100.00;98170.08;273495;1276;23139;-89
2024/01/05 02:14:16;;;;;;;7.40;4.20;;;;;;;1.92;100.00;98203.00;273601;1270;22211;-90
2024/01/05 02:20:40;;;;;;;10.20;3.20;;;;;;;1.92;100.00;98208.81;273549;1275;22949;-91
2024/01/05 02:26:50;;;;;;;7.80;3.60;;;;;;;1.92;100.00;98214.27;273424;1272;22970;-91
2024/01/05 02:33:00;;;;;;;7.20;3.70;;;;;;;1.93;100.00;98202.58;272786;1254;23170;-91
2024/01/05 02:39:05;;;;;;;5.80;3.00;;;;;;;1.93;100.00;98200.58;271834;1271;22268;-90
2024/01/05 03:39:32;;;;;;;7.40;4.30;;;;;;;1.84;100.00;98243.08;270422;1270;23315;-90
2024/01/05 03:45:34;;;;;;;8.50;4.50;;;;;;;1.82;100.00;98248.50;271607;1260;225944;-89
2024/01/05 04:23:37;;;;;;;7.30;3.90;;;;;;;1.72;100.00;98246.52;271777;1270;24285;-90
2024/01/05 04:29:39;;;;;;;9.20;5.20;;;;;;;1.68;100.00;98242.21;270928;1272;22590;-91
2024/01/05 04:51:37;;;;;;;11.40;6.80;;;;;;;1.56;100.00;98253.77;270942;1272;23793;-92
2024/01/05 05:45:26;;;;;;;10.70;6.30;;;;;;;1.45;100.00;98320.59;272704;1271;23042;-91
2024/01/05 05:59:13;;;;;;;12.30;7.00;;;;;;;1.46;100.00;98343.83;270266;1271;22272;-90
2024/01/05 06:05:26;;;;;;;15.60;8.80;;;;;;;1.46;100.00;98353.22;272056;1262;22601;-91
2024/01/05 06:11:51;;;;;;;16.30;9.50;;;;;;;1.43;100.00;98358.61;270939;1271;22549;-91
2024/01/05 06:17:54;;;;;;;15.50;9.10;;;;;;;1.32;100.00;98367.49;272067;1271;22592;-90
2024/01/05 06:23:59;;;;;;;14.20;9.30;;;;;;;1.26;100.00;98369.65;271763;1272;22549;-91
2024/01/05 06:30:06;;;;;;;13.60;8.50;;;;;;;1.21;100.00;98361.85;272359;1271;22436;-90
2024/01/05 06:36:08;;;;;;;16.00;9.80;;;;;;;1.13;100.00;98345.77;273123;1271;22563;-90
2024/01/05 06:42:13;;;;;;;14.60;8.60;;;;;;;1.08;100.00;98349.73;270486;1272;23281;-91
2024/01/05 06:48:21;;;;;;;15.80;10.10;;;;;;;1.07;100.00;98347.70;271837;1271;22726;-91
2024/01/05 06:54:23;;;;;;;17.50;10.50;;;;;;;1.10;100.00;98345.77;272609;1271;22430;-92
2024/01/05 07:00:30;;;;;;;17.10;10.20;;;;;;;1.05;100.00;98344.33;270962;1271;25319;-91
2024/01/05 07:06:48;;;;;;;14.90;9.60;;;;;;;0.96;100.00;98337.41;272663;1271;23594;-92
2024/01/05 07:12:50;;;;;;;17.70;9.90;;;;;;;0.96;100.00;98331.11;271635;1271;22438;-91
2024/01/05 07:19:06;;;;;;;16.20;10.70;;;;;;;1.01;100.00;98321.59;271844;1271;22328;-92
2024/01/05 07:25:09;;;;;;;14.60;9.70;;;;;;;1.06;100.00;98322.72;270080;1272;22633;-91
2024/01/05 07:31:14;;;;;;;16.40;10.60;;;;;;;1.10;100.00;98329.92;270605;1272;22556;-92
2024/01/05 07:37:28;;;;;;;16.70;10.50;;;;;;;1.13;100.00;98329.52;270652;1271;22533;-91
2024/01/05 07:43:43;;;;;;;18.90;11.20;;;;;;;1.14;100.00;98328.99;269882;1272;22733;-90
2024/01/05 07:49:53;;;;;;;24.40;12.70;;;;;;;1.13;100.00;98325.90;271503;1271;22644;-91
2024/01/05 07:55:59;;;;;;;18.90;12.00;;;;;;;1.15;100.00;98316.48;269478;1272;23278;-90
2024/01/05 08:02:11;;;;;;;24.40;14.30;;;;;;;1.16;100.00;98315.67;270827;1272;23009;-90
2024/01/05 08:08:18;;;;;;;32.90;17.80;;;;;;;1.16;100.00;98322.14;270778;1272;22516;-91
2024/01/05 08:14:28;;;;;;;34.80;17.80;;;;;;;1.19;100.00;98326.95;270380;1272;23876;-89
2024/01/05 08:20:34;;;;;;;39.00;19.00;;;;;;;1.22;100.00;98321.36;271386;1272;22395;-90
2024/01/05 08:26:39;;;;;;;26.00;14.20;;;;;;;1.26;100.00;98310.73;270588;1275;22209;-92
2024/01/05 08:32:41;;;;;;;31.90;19.00;;;;;;;1.33;100.00;98312.98;272485;1275;22438;-91
2024/01/05 08:38:49;;;;;;;35.30;19.00;;;;;;;1.37;100.00;98319.06;272044;1272;22579;-92
2024/01/05 08:44:56;;;;;;;35.10;18.80;;;;;;;1.46;100.00;98334.11;270122;1272;22218;-91
2024/01/05 08:50:58;;;;;;;22.70;14.30;;;;;;;1.66;100.00;98338.53;270258;1272;22560;-92
2024/01/05 08:57:05;;;;;;;20.20;11.50;;;;;;;1.81;100.00;98344.23;271135;1272;22554;-91
2024/01/05 09:03:20;;;;;;;19.00;11.50;;;;;;;1.93;100.00;98344.86;271142;1272;25223;-91
2024/01/05 09:09:28;;;;;;;25.30;13.90;;;;;;;2.16;100.00;98345.18;270111;1272;22434;-92
2024/01/05 09:15:38;;;;;;;15.50;8.70;;;;;;;2.50;100.00;98341.96;270446;1272;26938;-92
2024/01/05 09:22:07;;;;;;;;;;;;;;;;;;;;;
2024/01/05 09:28:27;;;;;;;20.30;11.00;;;;;;;2.93;100.00;98327.03;270637;1278;22240;-92
2024/01/05 09:34:38;;;;;;;17.80;10.70;;;;;;;3.00;100.00;98334.42;270379;1271;22667;-92
2024/01/05 09:40:54;;;;;;;19.10;11.60;;;;;;;3.06;100.00;98333.30;270167;1275;23450;-91
2024/01/05 09:47:10;;;;;;;17.20;12.00;;;;;;;3.10;100.00;98326.77;270254;1272;22668;-90
2024/01/05 09:53:17;;;;;;;19.40;12.80;;;;;;;3.39;100.00;98317.95;270777;1272;22571;-93
2024/01/05 09:59:30;;;;;;;15.00;10.10;;;;;;;3.62;100.00;98322.77;270736;1273;22450;-92
2024/01/05 10:05:40;;;;;;;14.50;8.80;;;;;;;3.87;100.00;98331.94;270652;1272;22565;-90
2024/01/05 10:11:51;;;;;;;20.30;10.90;;;;;;;4.11;100.00;98336.86;269985;1272;22533;-92
2024/01/05 10:18:17;;;;;;;21.90;11.50;;;;;;;4.19;100.00;98333.80;271259;1270;25532;-91
2024/01/05 10:24:32;;;;;;;19.80;10.30;;;;;;;4.09;100.00;98333.33;271182;1272;22582;-92
2024/01/05 10:30:40;;;;;;;23.00;11.10;;;;;;;3.97;100.00;98336.70;270748;1272;22550;-91
2024/01/05 10:37:05;;;;;;;31.90;14.50;;;;;;;3.83;100.00;98333.79;270265;1272;22701;-92
2024/01/05 10:43:14;;;;;;;27.20;11.90;;;;;;;3.81;100.00;98331.55;271984;1271;22371;-91
2024/01/05 10:49:19;;;;;;;19.00;10.20;;;;;;;3.92;100.00;98329.23;271353;1270;23701;-89
2024/01/05 10:55:27;;;;;;;20.40;11.50;;;;;;;3.93;100.00;98317.35;270763;1273;22198;-90
2024/01/05 11:01:39;;;;;;;18.80;10.60;;;;;;;3.89;100.00;98305.80;270033;1275;22583;-90
2024/01/05 11:07:42;;;;;;;18.30;10.60;;;;;;;3.92;100.00;98291.23;270817;1272;22685;-91
2024/01/05 11:14:10;;;;;;;22.10;11.70;;;;;;;3.88;100.00;98291.29;269779;1272;22538;-90
2024/01/05 11:20:54;;;;;;;18.60;10.90;;;;;;;3.86;100.00;98291.64;269999;1271;22569;-90
2024/01/05 11:26:59;;;;;;;18.70;11.10;;;;;;;3.88;100.00;98277.59;271897;1270;23776;-90
2024/01/05 11:33:10;;;;;;;19.50;11.50;;;;;;;3.97;100.00;98272.95;271679;1272;22485;-90
2024/01/05 11:39:48;;;;;;;19.20;10.90;;;;;;;4.05;100.00;98266.36;270035;1271;22604;-90
2024/01/05 11:46:21;;;;;;;;;;;;;;;;;;;;;
2024/01/05 11:52:28;;;;;;;17.70;10.70;;;;;;;4.04;100.00;98260.91;270261;1271;22533;-90
2024/01/05 11:58:46;;;;;;;19.70;11.80;;;;;;;3.99;100.00;98265.12;271236;1275;23306;-91
2024/01/05 12:04:53;;;;;;;23.00;13.30;;;;;;;3.89;100.00;98264.80;271576;1272;22380;-92
2024/01/05 12:11:02;;;;;;;24.70;13.70;;;;;;;3.85;100.00;98256.24;273078;1270;22423;-91
2024/01/05 12:17:14;;;;;;;;;;;;;;;3.81;100.00;98253.82;273261;1270;22542;-93
2024/01/05 12:23:17;;;;;;;25.90;13.50;;;;;;;3.78;100.00;98247.93;272182;1270;22724;-90
2024/01/05 12:29:22;;;;;;;21.10;13.30;;;;;;;3.73;100.00;98237.00;271091;1271;22408;-91
2024/01/05 12:35:24;;;;;;;22.60;12.10;;;;;;;3.69;100.00;98237.50;271934;1272;22591;-90
2024/01/05 12:41:29;;;;;;;21.90;12.20;;;;;;;3.60;100.00;98234.70;270527;1275;22595;-90
2024/01/05 12:47:35;;;;;;;22.60;12.40;;;;;;;3.56;100.00;98240.56;269969;1269;22510;-90
2024/01/05 12:53:50;;;;;;;22.80;12.90;;;;;;;3.55;100.00;98243.40;270760;1271;23394;-92
2024/01/05 13:00:09;;;;;;;22.10;11.30;;;;;;;3.53;100.00;98237.64;271892;1270;22540;-90
2024/01/05 13:06:12;;;;;;;26.00;13.00;;;;;;;3.48;100.00;98226.75;271534;1273;25269;-91
2024/01/05 13:12:14;;;;;;;23.80;12.10;;;;;;;3.46;100.00;98222.30;272482;1271;22246;-90
2024/01/05 13:18:17;;;;;;;28.60;12.80;;;;;;;3.47;100.00;98216.44;270950;1270;22382;-89
2024/01/05 13:24:18;;;;;;;21.40;12.30;;;;;;;3.47;100.00;98212.48;270694;1266;22404;-91
2024/01/05 13:30:37;;;;;;;20.10;11.90;;;;;;;3.45;100.00;98201.76;271789;1270;22564;-90
2024/01/05 13:36:42;;;;;;;23.90;12.70;;;;;;;3.38;100.00;98203.44;271315;1270;22669;-92
2024/01/05 13:42:55;;;;;;;26.40;12.80;;;;;;;3.35;100.00;98200.81;271740;1270;22562;-90
2024/01/05 13:48:58;;;;;;;21.50;13.20;;;;;;;3.32;100.00;98199.42;272219;1270;22566;-92
2024/01/05 13:55:04;;;;;;;22.60;12.90;;;;;;;3.26;100.00;98193.46;271808;1270;22574;-91
2024/01/05 14:01:08;;;;;;;;;;;;;;;3.21;100.00;98190.46;271109;1270;22547;-92
2024/01/05 14:07:15;;;;;;;23.30;13.30;;;;;;;3.13;100.00;98181.28;271124;1270;22191;-90
2024/01/05 14:13:20;;;;;;;27.90;14.70;;;;;;;3.04;100.00;98176.42;272286;1270;22714;-90
2024/01/05 14:19:24;;;;;;;24.40;13.20;;;;;;;2.93;100.00;98178.29;272499;1267;22213;-89
2024/01/05 14:25:38;;;;;;;23.20;14.30;;;;;;;2.78;100.00;98176.16;271403;1270;22616;-91
2024/01/05 14:31:40;;;;;;;25.20;13.70;;;;;;;2.62;100.00;98169.22;272207;1272;22200;-90
2024/01/05 14:37:46;;;;;;;26.30;15.10;;;;;;;2.45;100.00;98171.55;270756;1270;22607;-91
2024/01/05 14:43:52;;;;;;;35.80;19.50;;;;;;;2.30;100.00;98170.35;271330;1270;22402;-92
2024/01/05 14:49:54;;;;;;;29.50;16.20;;;;;;;2.15;100.00;98167.63;272516;1273;23685;-92
2024/01/05 14:55:59;;;;;;;30.90;17.60;;;;;;;2.02;100.00;98178.86;271627;1271;22972;-90
2024/01/05 15:02:04;;;;;;;27.00;15.70;;;;;;;1.92;100.00;98185.58;271415;1270;22524;-91
2024/01/05 15:08:08;;;;;;;;;;;;;;;1.75;100.00;98175.80;271702;1270;22523;-90
2024/01/05 15:14:11;;;;;;;32.90;18.90;;;;;;;1.59;100.00;98165.02;272042;1270;22589;-92
2024/01/05 15:20:13;;;;;;;33.90;18.90;;;;;;;1.51;100.00;98171.29;270399;1272;25375;-90
2024/01/05 15:26:17;;;;;;;29.00;16.10;;;;;;;1.45;100.00;98169.27;270349;1270;23418;-90
2024/01/05 15:32:20;;;;;;;32.20;20.40;;;;;;;1.43;100.00;98159.70;271345;1270;23451;-91
2024/01/05 15:38:24;;;;;;;42.20;20.90;;;;;;;1.42;100.00;98155.15;271442;1271;22665;-91
2024/01/05 15:44:27;;;;;;;34.60;19.30;;;;;;;1.46;100.00;98153.64;272194;1272;22192;-90
2024/01/05 15:50:32;;;;;;;36.40;20.10;;;;;;;1.51;100.00;98145.64;272849;1270;140807;-90
2024/01/05 15:56:34;;;;;;;37.80;20.80;;;;;;;1.52;100.00;98150.23;271570;1270;24112;-92
2024/01/05 16:02:37;;;;;;;37.90;21.10;;;;;;;1.54;100.00;98152.23;272149;1270;23585;-91
2024/01/05 16:08:44;;;;;;;43.90;21.80;;;;;;;1.55;100.00;98158.25;272233;1270;22388;-90
2024/01/05 16:14:48;;;;;;;56.40;26.50;;;;;;;1.55;100.00;98165.95;271254;1270;23704;-91
2024/01/05 16:21:04;;;;;;;40.40;22.00;;;;;;;1.54;100.00;98169.95;271597;1270;22300;-91
2024/01/05 16:27:09;;;;;;;53.20;24.40;;;;;;;1.54;100.00;98165.09;271675;1269;22716;-89
2024/01/05 16:33:11;;;;;;;59.80;26.70;;;;;;;1.51;100.00;98159.44;271066;1270;22586;-91
2024/01/05 16:39:17;;;;;;;70.20;29.40;;;;;;;1.47;100.00;98159.23;270330;1270;22580;-92
2024/01/05 16:45:26;;;;;;;62.00;31.10;;;;;;;1.42;100.00;98151.98;270865;1271;22587;-89
2024/01/05 16:51:30;;;;;;;67.70;30.80;;;;;;;1.36;100.00;98147.98;273049;1270;22571;-90
2024/01/05 16:57:37;;;;;;;65.00;30.70;;;;;;;1.30;100.00;98157.96;271389;1270;23846;-90
2024/01/05 17:03:45;;;;;;;67.10;30.40;;;;;;;1.25;100.00;98156.33;273067;1269;23310;-90
2024/01/05 17:09:52;;;;;;;67.20;30.90;;;;;;;1.21;100.00;98151.71;271359;1270;22756;-89
2024/01/05 17:15:56;;;;;;;71.10;32.10;;;;;;;1.18;100.00;98152.08;270545;1270;23716;-89
2024/01/05 17:21:58;;;;;;;71.70;34.10;;;;;;;1.12;100.00;98149.71;271339;1270;23364;-90
2024/01/05 17:28:00;;;;;;;61.30;29.40;;;;;;;1.06;100.00;98145.71;270345;1271;22553;-90
2024/01/05 17:34:02;;;;;;;65.40;30.50;;;;;;;0.98;100.00;98146.53;270835;1270;24232;-92
2024/01/05 17:40:07;;;;;;;61.00;29.00;;;;;;;0.89;100.00;98148.38;272456;1270;22345;-91
2024/01/05 17:46:12;;;;;;;60.50;29.40;;;;;;;0.82;100.00;98151.95;271351;1270;22608;-91
2024/01/05 17:52:14;;;;;;;59.60;28.40;;;;;;;0.75;100.00;98161.27;272870;1270;23808;-89
2024/01/05 17:58:16;;;;;;;70.20;30.80;;;;;;;0.73;100.00;98162.65;272046;1261;23185;-89
2024/01/05 18:04:20;;;;;;;62.40;30.40;;;;;;;0.72;100.00;98158.45;272731;1270;22332;-89
2024/01/05 18:10:27;;;;;;;62.00;28.60;;;;;;;0.70;100.00;98159.23;273101;1270;22184;-89
2024/01/05 18:16:35;;;;;;;68.90;31.30;;;;;;;0.65;100.00;98165.45;271543;1271;22338;-89
2024/01/05 18:22:39;;;;;;;66.80;31.30;;;;;;;0.61;100.00;98168.83;271160;1261;22959;-91
2024/01/05 18:28:43;;;;;;;65.40;31.70;;;;;;;0.57;100.00;98166.63;272534;1270;22342;-90
2024/01/05 18:34:47;;;;;;;65.90;31.50;;;;;;;0.55;100.00;98173.21;273006;1270;22181;-89
2024/01/05 18:40:50;;;;;;;69.10;31.70;;;;;;;0.51;100.00;98164.71;272895;1270;22328;-91
2024/01/05 18:46:55;;;;;;;82.60;34.60;;;;;;;0.51;100.00;98158.77;273010;1271;22257;-91
2024/01/05 18:52:57;;;;;;;69.40;32.70;;;;;;;0.50;100.00;98154.63;272895;1271;22389;-91
2024/01/05 18:59:01;;;;;;;68.00;32.50;;;;;;;0.48;100.00;98158.34;272147;1271;23370;-90
2024/01/05 19:05:09;;;;;;;71.60;33.40;;;;;;;0.44;100.00;98155.90;272776;1271;22196;-90
2024/01/05 19:11:14;;;;;;;74.20;34.10;;;;;;;0.45;100.00;98155.48;270304;1258;22601;-89
2024/01/05 19:17:16;;;;;;;77.70;36.60;;;;;;;0.46;100.00;98159.18;272594;1271;22991;-90
2024/01/05 19:23:21;;;;;;;75.40;34.50;;;;;;;0.44;100.00;98144.52;272720;1271;22322;-90
2024/01/05 19:29:33;;;;;;;79.40;35.90;;;;;;;0.45;100.00;98139.39;271784;1271;23552;-90
2024/01/05 19:35:37;;;;;;;69.20;33.10;;;;;;;0.44;100.00;98146.20;271909;1271;22581;-88
2024/01/05 19:41:53;;;;;;;80.80;36.10;;;;;;;0.40;100.00;98138.38;271180;1271;22202;-89
2024/01/05 19:48:00;;;;;;;73.90;34.50;;;;;;;0.37;100.00;98144.86;271133;1271;23157;-89
2024/01/05 19:54:03;;;;;;;73.20;34.40;;;;;;;0.33;100.00;98147.02;272490;1271;22210;-89
2024/01/05 20:00:07;;;;;;;81.30;37.00;;;;;;;0.32;100.00;98145.22;272564;1271;23416;-89
2024/01/05 20:06:12;;;;;;;71.30;33.90;;;;;;;0.26;100.00;98152.39;265580;1270;10001593;-89
2024/01/05 20:12:16;;;;;;;76.90;34.80;;;;;;;0.27;100.00;98153.27;273158;1270;22216;-89
2024/01/05 20:18:18;;;;;;;82.20;35.40;;;;;;;0.27;100.00;98143.95;273248;1270;22231;-89
2024/01/05 20:24:24;;;;;;;83.50;36.60;;;;;;;0.27;100.00;98145.01;273118;1270;22222;-89
2024/01/05 20:30:31;;;;;;;77.10;35.80;;;;;;;0.28;100.00;98145.45;272993;1270;22327;-89
2024/01/05 20:36:35;;;;;;;67.40;33.80;;;;;;;0.29;100.00;98157.88;273492;1277;23198;-89
2024/01/05 20:42:39;;;;;;;80.70;37.00;;;;;;;0.29;100.00;98166.11;273033;1271;23546;-89
2024/01/05 20:48:41;;;;;;;83.40;37.90;;;;;;;0.30;100.00;98151.21;273195;1277;24111;-90
2024/01/05 20:54:43;;;;;;;78.10;35.60;;;;;;;0.29;100.00;98139.92;272970;1271;22197;-89
2024/01/05 21:00:48;;;;;;;81.30;37.30;;;;;;;0.23;100.00;98131.25;273265;1271;23522;-89
2024/01/05 21:06:51;;;;;;;82.30;36.60;;;;;;;0.24;100.00;98129.66;273030;1263;22422;-89
2024/01/05 21:12:53;;;;;;;86.80;39.10;;;;;;;0.26;100.00;98139.59;273111;1270;22805;-91
2024/01/05 21:18:57;;;;;;;97.60;42.00;;;;;;;0.26;100.00;98135.89;273111;1271;23430;-90
2024/01/05 21:24:59;;;;;;;82.60;39.70;;;;;;;0.25;100.00;98140.93;272933;1272;22475;-89
2024/01/05 21:31:05;;;;;;;92.90;39.20;;;;;;;0.22;100.00;98135.82;272984;1271;22343;-89
2024/01/05 21:37:10;;;;;;;91.50;42.20;;;;;;;0.20;100.00;98120.61;272586;1271;22572;-89
2024/01/05 21:43:12;;;;;;;88.00;40.10;;;;;;;0.17;100.00;98109.59;271081;1270;22580;-89
2024/01/05 21:49:14;;;;;;;93.20;39.80;;;;;;;0.13;100.00;98098.21;272795;1270;22494;-89
2024/01/05 21:55:17;;;;;;;88.90;38.70;;;;;;;0.11;100.00;98100.36;273061;1270;22346;-90
2024/01/05 22:01:19;;;;;;;78.50;35.50;;;;;;;0.06;100.00;98111.16;273040;1271;22300;-89
2024/01/05 22:07:21;;;;;;;106.50;46.60;;;;;;;0.06;100.00;98111.70;273181;1270;22173;-89
2024/01/05 22:13:24;;;;;;;90.70;42.30;;;;;;;0.05;100.00;98112.81;270796;1271;22564;-89
2024/01/05 22:19:27;;;;;;;92.00;40.90;;;;;;;0.02;100.00;98102.80;271296;1270;22316;-89
2024/01/05 22:25:29;;;;;;;94.20;41.70;;;;;;;-0.03;100.00;98098.14;270461;1270;24421;-90
2024/01/05 22:31:31;;;;;;;96.50;41.70;;;;;;;-0.05;100.00;98097.17;269823;1272;22632;-90
2024/01/05 22:37:33;;;;;;;100.10;39.30;;;;;;;-0.09;100.00;98098.18;270184;1270;22550;-90
2024/01/05 22:43:36;;;;;;;91.40;40.80;;;;;;;-0.17;100.00;98093.92;271429;1271;22562;-89
2024/01/05 22:49:39;;;;;;;95.90;37.70;;;;;;;-0.24;100.00;98088.13;270075;1272;22537;-89
2024/01/05 22:55:41;;;;;;;95.90;40.30;;;;;;;-0.28;100.00;98082.83;270424;1271;22670;-90
2024/01/05 23:01:43;;;;;;;98.50;41.90;;;;;;;-0.29;100.00;98076.64;270256;1271;24202;-89
2024/01/05 23:07:48;;;;;;;93.50;40.50;;;;;;;-0.29;100.00;98084.95;270514;1272;23365;-90
2024/01/05 23:13:52;;;;;;;103.60;42.80;;;;;;;-0.29;100.00;98083.73;272105;1264;22248;-89
2024/01/05 23:19:57;;;;;;;102.70;41.40;;;;;;;-0.26;100.00;98089.56;271133;1269;22301;-89
2024/01/05 23:25:59;;;;;;;89.00;40.40;;;;;;;-0.22;100.00;98090.80;271661;1272;22401;-89
2024/01/05 23:32:02;;;;;;;109.10;43.20;;;;;;;-0.21;100.00;98085.95;273097;1271;22416;-89
2024/01/05 23:38:05;;;;;;;99.10;40.70;;;;;;;-0.19;100.00;98082.54;270019;1270;22257;-89
2024/01/05 23:44:07;;;;;;;92.30;40.40;;;;;;;-0.18;100.00;98078.43;271098;1272;26175;-90
2024/01/05 23:50:11;;;;;;;96.70;39.90;;;;;;;-0.22;100.00;98082.58;272825;1272;22898;-90
2024/01/05 23:56:15;;;;;;;102.50;41.40;;;;;;;-0.24;100.00;98078.13;271577;1272;23501;-90
